Time;durP1;ratioP1;P1;durP2;ratioP2;P2;SDS_P1;SDS_P2;PMS_P1;PMS_P2;Temp;Humidity;BMP_temperature;BMP_pressure;BME280_temperature;BME280_humidity;BME280_pressure;Samples;Min_cycle;Max_cycle;Signal;HPM_P1;HPM_P2
2021/10/29 00:00:33;;;;;;;194.33;24.80;;;;;;;;;;6167207;23;20228;-92
2021/10/29 00:03:40;;;;;;;142.97;26.00;;;;;;;;;;6184425;23;20210;-91
2021/10/29 00:11:06;;;;;;;79.97;22.50;;;;;;;;;;6204210;23;20180;-92
2021/10/29 00:14:15;;;;;;;75.60;22.93;;;;;;;;;;6185469;23;20274;-89
2021/10/29 00:17:21;;;;;;;69.43;23.73;;;;;;;;;;6187430;23;20160;-92
2021/10/29 00:20:27;;;;;;;85.87;24.93;;;;;;;;;;6186258;23;20259;-91
2021/10/29 00:23:33;;;;;;;80.17;25.13;;;;;;;;;;6188564;23;20238;-91
2021/10/29 00:26:39;;;;;;;89.53;23.60;;;;;;;;;;6186466;23;20175;-88
2021/10/29 00:29:46;;;;;;;113.00;24.50;;;;;;;;;;6185795;23;20512;-92
2021/10/29 00:32:53;;;;;;;96.13;25.27;;;;;;;;;;6185469;23;20199;-91
2021/10/29 00:35:59;;;;;;;83.03;23.40;;;;;;;;;;6183044;23;20271;-91
2021/10/29 00:39:07;;;;;;;81.87;22.30;;;;;;;;;;6184742;23;20191;-90
2021/10/29 00:42:13;;;;;;;119.67;24.27;;;;;;;;;;6185659;23;20217;-88
2021/10/29 00:45:20;;;;;;;116.40;26.10;;;;;;;;;;6185254;23;20239;-90
2021/10/29 00:48:26;;;;;;;125.00;26.57;;;;;;;;;;6185532;23;20176;-90
2021/10/29 00:51:32;;;;;;;211.33;25.77;;;;;;;;;;6185251;23;20447;-90
2021/10/29 00:54:37;;;;;;;135.60;26.17;;;;;;;;;;6184934;23;20220;-90
2021/10/29 00:57:44;;;;;;;125.23;23.67;;;;;;;;;;6186223;23;20220;-89
2021/10/29 01:00:52;;;;;;;118.43;23.57;;;;;;;;;;6187237;23;20210;-90
2021/10/29 01:03:58;;;;;;;132.87;23.50;;;;;;;;;;6187447;23;20211;-91
2021/10/29 01:07:04;;;;;;;152.10;25.47;;;;;;;;;;6186604;23;20176;-89
2021/10/29 01:10:10;;;;;;;121.63;23.33;;;;;;;;;;6187992;23;20211;-91
2021/10/29 01:13:15;;;;;;;171.03;25.93;;;;;;;;;;6187304;23;20192;-92
2021/10/29 01:16:23;;;;;;;101.37;22.47;;;;;;;;;;6187114;23;20155;-88
2021/10/29 01:19:31;;;;;;;143.80;24.80;;;;;;;;;;6187052;23;20246;-91
2021/10/29 01:22:39;;;;;;;111.17;24.83;;;;;;;;;;6168423;23;20168;-90
2021/10/29 01:25:44;;;;;;;75.27;22.60;;;;;;;;;;6184067;23;20172;-92
2021/10/29 01:28:49;;;;;;;95.87;22.13;;;;;;;;;;6182783;23;20180;-91
2021/10/29 01:31:55;;;;;;;128.63;24.33;;;;;;;;;;6186041;23;20192;-90
2021/10/29 01:35:01;;;;;;;105.67;24.20;;;;;;;;;;6183918;23;20199;-90
2021/10/29 01:38:12;;;;;;;196.60;26.83;;;;;;;;;;6183887;23;20220;-91
2021/10/29 01:41:17;;;;;;;170.03;26.10;;;;;;;;;;6183073;23;20175;-92
2021/10/29 01:44:23;;;;;;;156.23;25.60;;;;;;;;;;6183921;23;20172;-92
2021/10/29 01:47:29;;;;;;;137.23;25.40;;;;;;;;;;6183343;23;20211;-91
2021/10/29 01:50:34;;;;;;;148.00;24.80;;;;;;;;;;6184032;23;20172;-91
2021/10/29 01:53:43;;;;;;;108.90;23.33;;;;;;;;;;6184415;23;20200;-90
2021/10/29 01:56:49;;;;;;;92.53;24.53;;;;;;;;;;6185671;23;20188;-92
2021/10/29 01:59:57;;;;;;;127.77;26.03;;;;;;;;;;6185678;23;20168;-91
2021/10/29 02:03:02;;;;;;;90.43;24.57;;;;;;;;;;6186697;23;20186;-89
2021/10/29 02:06:08;;;;;;;135.33;24.40;;;;;;;;;;6187891;23;20253;-91
2021/10/29 02:09:15;;;;;;;110.20;24.00;;;;;;;;;;6185474;23;20171;-92
2021/10/29 02:12:21;;;;;;;124.20;24.03;;;;;;;;;;6186845;23;20184;-91
2021/10/29 02:15:27;;;;;;;106.73;24.60;;;;;;;;;;6187260;23;20178;-90
2021/10/29 02:18:33;;;;;;;72.53;21.87;;;;;;;;;;6186846;23;20216;-91
2021/10/29 02:21:39;;;;;;;75.53;20.60;;;;;;;;;;6188603;23;20175;-90
2021/10/29 02:24:46;;;;;;;91.63;21.10;;;;;;;;;;6187925;23;20268;-91
2021/10/29 02:27:54;;;;;;;63.73;21.57;;;;;;;;;;6187175;23;20171;-92
2021/10/29 02:31:00;;;;;;;98.33;22.77;;;;;;;;;;6188056;23;20168;-90
2021/10/29 02:34:06;;;;;;;61.53;21.17;;;;;;;;;;6185877;23;20199;-90
2021/10/29 02:37:11;;;;;;;94.97;22.63;;;;;;;;;;6186812;23;20160;-90
2021/10/29 02:40:18;;;;;;;74.53;21.67;;;;;;;;;;6187610;23;20200;-91
2021/10/29 02:43:25;;;;;;;76.53;21.87;;;;;;;;;;6188077;23;20211;-91
2021/10/29 02:46:30;;;;;;;76.80;21.50;;;;;;;;;;6187240;23;20171;-90
2021/10/29 02:49:37;;;;;;;97.60;22.70;;;;;;;;;;6187780;23;20193;-89
2021/10/29 02:52:43;;;;;;;92.03;21.70;;;;;;;;;;6187176;23;20211;-92
2021/10/29 02:55:50;;;;;;;74.63;21.17;;;;;;;;;;6186197;23;20215;-90
2021/10/29 02:58:55;;;;;;;91.57;21.37;;;;;;;;;;6187160;23;20172;-91
2021/10/29 03:02:00;;;;;;;137.33;22.60;;;;;;;;;;6186803;23;20660;-90
2021/10/29 03:05:07;;;;;;;51.50;21.27;;;;;;;;;;6186400;23;20237;-90
2021/10/29 03:08:13;;;;;;;80.13;20.93;;;;;;;;;;6187067;23;20240;-90
2021/10/29 03:11:20;;;;;;;97.17;21.57;;;;;;;;;;6186409;23;20164;-91
2021/10/29 03:14:25;;;;;;;94.87;23.43;;;;;;;;;;6185697;23;20286;-91
2021/10/29 03:18:00;;;;;;;96.77;22.40;;;;;;;;;;6187363;23;20199;-91
2021/10/29 03:21:05;;;;;;;108.90;22.53;;;;;;;;;;6186557;23;20168;-90
2021/10/29 03:24:11;;;;;;;58.57;23.47;;;;;;;;;;6186616;23;20239;-89
2021/10/29 03:27:19;;;;;;;66.37;23.07;;;;;;;;;;6186183;23;20241;-89
2021/10/29 03:30:26;;;;;;;75.40;21.50;;;;;;;;;;6187119;23;20172;-90
2021/10/29 03:33:36;;;;;;;64.00;21.20;;;;;;;;;;6185690;23;20247;-91
2021/10/29 03:36:42;;;;;;;74.83;22.57;;;;;;;;;;6185658;23;20207;-88
2021/10/29 03:39:55;;;;;;;68.83;23.53;;;;;;;;;;6186092;23;20209;-91
2021/10/29 03:43:06;;;;;;;73.67;22.43;;;;;;;;;;6185357;23;20212;-90
2021/10/29 03:46:15;;;;;;;68.07;23.87;;;;;;;;;;6186516;23;20254;-89
2021/10/29 03:49:25;;;;;;;69.73;22.23;;;;;;;;;;6185818;23;20269;-90
2021/10/29 03:52:34;;;;;;;77.07;22.40;;;;;;;;;;6185975;23;20156;-90
2021/10/29 03:55:41;;;;;;;66.80;24.50;;;;;;;;;;6186442;23;20216;-90
2021/10/29 03:58:49;;;;;;;65.20;23.70;;;;;;;;;;6186708;23;20627;-90
2021/10/29 04:02:05;;;;;;;81.43;22.97;;;;;;;;;;6187368;23;20242;-91
2021/10/29 04:05:11;;;;;;;73.23;23.73;;;;;;;;;;6155772;23;20180;-90
2021/10/29 04:08:16;;;;;;;85.07;23.30;;;;;;;;;;6156551;23;20204;-91
2021/10/29 04:11:24;;;;;;;80.23;22.47;;;;;;;;;;6156661;23;20172;-89
2021/10/29 04:14:31;;;;;;;66.17;21.80;;;;;;;;;;6156970;23;20196;-92
2021/10/29 04:21:53;;;;;;;97.73;21.90;;;;;;;;;;6175757;23;20165;-91
2021/10/29 04:24:58;;;;;;;86.47;21.37;;;;;;;;;;6157190;23;20172;-91
2021/10/29 04:28:09;;;;;;;68.27;21.80;;;;;;;;;;6157739;23;20285;-91
2021/10/29 04:31:20;;;;;;;89.63;19.50;;;;;;;;;;6156070;23;20188;-89
2021/10/29 04:34:26;;;;;;;75.37;20.37;;;;;;;;;;6157229;23;20294;-92
2021/10/29 04:37:32;;;;;;;48.33;19.00;;;;;;;;;;6156143;23;20176;-91
2021/10/29 19:18:15;;;;;;;69.60;31.10;;;;;;;;;;6141930;23;20216;-91
2021/10/29 19:21:26;;;;;;;76.30;33.23;;;;;;;;;;6184382;23;20175;-91
2021/10/29 19:24:32;;;;;;;79.40;34.10;;;;;;;;;;6183324;23;20179;-88
2021/10/29 19:27:37;;;;;;;89.97;39.57;;;;;;;;;;6182717;23;20171;-93
2021/10/29 19:30:42;;;;;;;103.70;36.77;;;;;;;;;;6183245;23;20619;-91
2021/10/29 19:33:49;;;;;;;86.93;36.60;;;;;;;;;;6181698;23;20213;-91
2021/10/29 19:37:06;;;;;;;96.73;36.40;;;;;;;;;;6181263;23;20611;-92
2021/10/29 19:40:21;;;;;;;88.53;35.83;;;;;;;;;;6181962;23;20196;-91
2021/10/29 19:43:26;;;;;;;108.67;35.10;;;;;;;;;;6182462;23;20172;-90
2021/10/29 19:46:31;;;;;;;76.83;32.23;;;;;;;;;;6181656;23;20168;-93
2021/10/29 19:49:37;;;;;;;98.00;38.13;;;;;;;;;;6180838;23;20195;-89
2021/10/29 19:52:43;;;;;;;86.17;35.17;;;;;;;;;;6179342;23;20228;-89
2021/10/29 19:55:49;;;;;;;116.67;35.07;;;;;;;;;;6180266;23;20235;-90
2021/10/29 19:58:56;;;;;;;104.00;34.77;;;;;;;;;;6182564;23;20171;-89
2021/10/29 20:02:01;;;;;;;105.27;34.80;;;;;;;;;;6182767;23;20179;-90
2021/10/29 20:05:08;;;;;;;113.50;37.87;;;;;;;;;;6181007;23;20212;-90
2021/10/29 20:08:14;;;;;;;77.10;34.23;;;;;;;;;;6181440;23;20472;-90
2021/10/29 20:11:19;;;;;;;119.87;32.77;;;;;;;;;;6180389;23;20279;-92
2021/10/29 20:14:24;;;;;;;123.97;33.23;;;;;;;;;;6181189;23;20168;-91
2021/10/29 20:17:34;;;;;;;385.07;143.63;;;;;;;;;;6181661;23;20171;-92
2021/10/29 20:20:41;;;;;;;189.23;38.63;;;;;;;;;;6182163;23;20192;-91
2021/10/29 20:23:57;;;;;;;106.20;39.33;;;;;;;;;;6183415;23;20187;-89
2021/10/29 20:27:02;;;;;;;122.77;37.13;;;;;;;;;;6182456;23;20171;-90
2021/10/29 20:30:08;;;;;;;129.50;44.13;;;;;;;;;;6182135;23;20179;-91
2021/10/29 20:33:14;;;;;;;116.07;40.33;;;;;;;;;;6184819;23;20263;-90
2021/10/29 20:36:21;;;;;;;109.57;28.87;;;;;;;;;;6183625;23;20191;-91
2021/10/29 20:39:29;;;;;;;98.60;30.23;;;;;;;;;;6185445;23;20172;-90
2021/10/29 20:42:34;;;;;;;75.70;30.87;;;;;;;;;;6184405;23;20164;-91
2021/10/29 20:45:41;;;;;;;90.43;32.43;;;;;;;;;;6183093;23;20168;-90
2021/10/29 20:48:46;;;;;;;97.57;31.93;;;;;;;;;;6181121;23;20155;-92
2021/10/29 20:51:54;;;;;;;72.50;32.67;;;;;;;;;;6183440;23;20176;-91
2021/10/29 20:55:00;;;;;;;75.57;30.57;;;;;;;;;;6183250;23;20207;-89
2021/10/29 20:58:05;;;;;;;68.57;29.97;;;;;;;;;;6182001;23;20676;-91
2021/10/29 21:01:10;;;;;;;70.07;31.27;;;;;;;;;;6182418;23;20465;-88
2021/10/29 21:04:15;;;;;;;65.40;29.33;;;;;;;;;;6181719;23;20168;-90
2021/10/29 21:07:23;;;;;;;69.90;28.57;;;;;;;;;;6181423;23;20168;-91
2021/10/29 21:10:28;;;;;;;88.17;29.27;;;;;;;;;;6182717;23;20176;-89
2021/10/29 21:13:33;;;;;;;81.03;31.63;;;;;;;;;;6183741;23;20163;-91
2021/10/29 21:16:55;;;;;;;91.80;30.50;;;;;;;;;;6181932;23;20327;-90
2021/10/29 21:20:01;;;;;;;70.43;28.00;;;;;;;;;;6181519;23;20219;-87
2021/10/29 21:23:07;;;;;;;78.07;29.90;;;;;;;;;;6182409;23;20199;-89
2021/10/29 21:26:12;;;;;;;73.30;28.67;;;;;;;;;;6181717;23;20171;-88
2021/10/29 21:29:17;;;;;;;94.63;26.67;;;;;;;;;;6182628;23;20182;-89
2021/10/29 21:32:22;;;;;;;64.53;28.13;;;;;;;;;;6180744;23;20171;-90
2021/10/29 21:35:28;;;;;;;55.53;25.73;;;;;;;;;;6180554;23;20199;-88
2021/10/29 21:38:35;;;;;;;61.40;25.80;;;;;;;;;;6180735;23;20175;-88
2021/10/29 21:41:42;;;;;;;65.80;25.50;;;;;;;;;;6181204;23;20183;-90
2021/10/29 21:44:49;;;;;;;54.13;24.77;;;;;;;;;;6181207;23;20191;-90
2021/10/29 21:47:54;;;;;;;72.77;26.00;;;;;;;;;;6182082;23;20171;-91
2021/10/29 21:50:59;;;;;;;57.03;26.27;;;;;;;;;;6180362;23;20601;-91
2021/10/29 21:54:06;;;;;;;65.17;24.77;;;;;;;;;;6179204;23;20211;-91
2021/10/29 21:57:11;;;;;;;52.53;25.57;;;;;;;;;;6178705;23;20258;-92
2021/10/29 22:00:18;;;;;;;56.70;26.17;;;;;;;;;;6180008;23;20183;-91
2021/10/29 22:03:48;;;;;;;62.60;24.87;;;;;;;;;;6179156;23;20167;-93
2021/10/29 22:06:53;;;;;;;72.40;24.00;;;;;;;;;;6180675;23;20218;-91
2021/10/29 22:10:00;;;;;;;65.97;25.13;;;;;;;;;;6180589;23;20274;-92
2021/10/29 22:13:06;;;;;;;63.73;25.63;;;;;;;;;;6180413;23;20176;-91
2021/10/29 22:16:29;;;;;;;72.07;27.10;;;;;;;;;;6180484;23;20186;-91
2021/10/29 22:19:34;;;;;;;48.57;24.87;;;;;;;;;;6181369;23;20240;-93
2021/10/29 22:22:40;;;;;;;71.10;26.23;;;;;;;;;;6181960;23;20231;-91
2021/10/29 22:25:51;;;;;;;61.47;25.07;;;;;;;;;;6182749;23;20168;-91
2021/10/29 22:28:56;;;;;;;62.93;24.70;;;;;;;;;;6181815;23;20175;-91
2021/10/29 22:32:02;;;;;;;62.67;24.73;;;;;;;;;;6182831;23;20172;-90
2021/10/29 22:35:08;;;;;;;86.47;25.33;;;;;;;;;;6183628;23;20180;-92
2021/10/29 22:38:13;;;;;;;66.43;24.77;;;;;;;;;;6184100;23;20172;-92
2021/10/29 22:41:20;;;;;;;118.50;26.00;;;;;;;;;;6183336;23;20175;-92
2021/10/29 22:44:25;;;;;;;80.07;25.43;;;;;;;;;;6182557;23;20255;-90
2021/10/29 22:47:30;;;;;;;70.60;24.73;;;;;;;;;;6183780;23;20261;-89
2021/10/29 22:50:36;;;;;;;72.27;23.77;;;;;;;;;;6185247;23;20170;-92
2021/10/29 22:53:41;;;;;;;61.80;25.50;;;;;;;;;;6183923;23;20446;-88
2021/10/29 22:56:49;;;;;;;106.40;23.63;;;;;;;;;;6183625;23;20272;-89
2021/10/29 22:59:55;;;;;;;75.33;23.03;;;;;;;;;;6184255;23;20163;-90
2021/10/29 23:03:00;;;;;;;47.53;22.67;;;;;;;;;;6184280;23;20191;-89
2021/10/29 23:06:07;;;;;;;46.77;22.43;;;;;;;;;;6184173;23;20180;-89
2021/10/29 23:09:13;;;;;;;50.53;21.67;;;;;;;;;;6184507;23;20171;-91
2021/10/29 23:12:20;;;;;;;71.73;22.17;;;;;;;;;;6185133;23;20171;-90
2021/10/29 23:19:44;;;;;;;92.07;25.00;;;;;;;;;;6202711;23;20258;-90
2021/10/29 23:22:50;;;;;;;78.67;23.20;;;;;;;;;;6185554;23;20243;-89
2021/10/29 23:25:55;;;;;;;63.20;21.47;;;;;;;;;;6182395;23;20168;-91
2021/10/29 23:29:02;;;;;;;88.77;22.97;;;;;;;;;;6184532;23;20188;-89
2021/10/29 23:32:08;;;;;;;52.10;21.77;;;;;;;;;;6184358;23;20179;-90
2021/10/29 23:35:13;;;;;;;72.43;21.63;;;;;;;;;;6184848;23;20175;-91
2021/10/29 23:38:18;;;;;;;80.93;22.50;;;;;;;;;;6183231;23;20216;-91
2021/10/29 23:41:23;;;;;;;82.90;22.73;;;;;;;;;;6183490;23;20178;-91
2021/10/29 23:44:30;;;;;;;49.37;21.10;;;;;;;;;;6184122;23;20163;-92
2021/10/29 23:47:35;;;;;;;50.53;20.87;;;;;;;;;;6186124;23;20176;-92
2021/10/29 23:50:40;;;;;;;41.47;21.50;;;;;;;;;;6184976;23;20248;-92
2021/10/29 23:53:45;;;;;;;43.40;21.73;;;;;;;;;;6184889;23;20164;-90
2021/10/29 23:56:51;;;;;;;83.37;21.83;;;;;;;;;;6184052;23;20194;-91
2021/10/29 23:59:58;;;;;;;66.17;21.70;;;;;;;;;;6182996;23;20338;-92
